sensor_id;sensor_type;location;lat;lon;timestamp;pressure;altitude;pressure_sealevel;temperature;humidity
85166;BME280;75533;52.100;10.228;2024-02-26T00:00:59;98727.75;;;18.76;45.39
85166;BME280;75533;52.100;10.228;2024-02-26T00:03:24;98724.97;;;18.76;45.39
85166;BME280;75533;52.100;10.228;2024-02-26T00:05:49;98725.22;;;18.74;45.07
85166;BME280;75533;52.100;10.228;2024-02-26T00:08:14;98722.22;;;18.76;45.43
85166;BME280;75533;52.100;10.228;2024-02-26T00:10:40;98718.84;;;18.74;45.27
85166;BME280;75533;52.100;10.228;2024-02-26T00:13:05;98714.41;;;18.73;45.16
85166;BME280;75533;52.100;10.228;2024-02-26T00:15:30;98714.66;;;18.71;45.29
85166;BME280;75533;52.100;10.228;2024-02-26T00:17:56;98726.56;;;18.72;45.38
85166;BME280;75533;52.100;10.228;2024-02-26T00:20:21;98725.97;;;18.70;45.37
85166;BME280;75533;52.100;10.228;2024-02-26T00:22:46;98727.06;;;18.69;45.25
85166;BME280;75533;52.100;10.228;2024-02-26T00:25:12;98729.81;;;18.69;45.49
85166;BME280;75533;52.100;10.228;2024-02-26T00:27:37;98723.72;;;18.67;45.27
85166;BME280;75533;52.100;10.228;2024-02-26T00:30:04;98714.31;;;18.68;45.21
85166;BME280;75533;52.100;10.228;2024-02-26T00:32:30;98713.13;;;18.63;45.48
85166;BME280;75533;52.100;10.228;2024-02-26T00:34:55;98723.94;;;18.65;45.33
85166;BME280;75533;52.100;10.228;2024-02-26T00:37:20;98726.69;;;18.65;45.25
85166;BME280;75533;52.100;10.228;2024-02-26T00:39:46;98714.78;;;18.65;45.29
85166;BME280;75533;52.100;10.228;2024-02-26T00:42:11;98718.66;;;18.63;45.27
85166;BME280;75533;52.100;10.228;2024-02-26T00:44:37;98718.03;;;18.61;45.13
85166;BME280;75533;52.100;10.228;2024-02-26T00:47:02;98719.13;;;18.60;45.36
85166;BME280;75533;52.100;10.228;2024-02-26T00:49:28;98711.44;;;18.62;45.33
85166;BME280;75533;52.100;10.228;2024-02-26T00:51:53;98719.13;;;18.60;45.13
85166;BME280;75533;52.100;10.228;2024-02-26T00:54:18;98726.31;;;18.61;45.06
85166;BME280;75533;52.100;10.228;2024-02-26T00:56:44;98722.72;;;18.61;45.15
85166;BME280;75533;52.100;10.228;2024-02-26T00:59:09;98713.59;;;18.60;45.12
85166;BME280;75533;52.100;10.228;2024-02-26T01:01:35;98715.75;;;18.58;45.39
85166;BME280;75533;52.100;10.228;2024-02-26T01:04:00;98712.41;;;18.56;45.35
85166;BME280;75533;52.100;10.228;2024-02-26T01:06:25;98699.66;;;18.55;45.33
85166;BME280;75533;52.100;10.228;2024-02-26T01:08:51;98712.41;;;18.56;45.29
85166;BME280;75533;52.100;10.228;2024-02-26T01:11:16;98710.72;;;18.55;45.19
85166;BME280;75533;52.100;10.228;2024-02-26T01:13:41;98702.94;;;18.52;45.05
85166;BME280;75533;52.100;10.228;2024-02-26T01:16:06;98703.78;;;18.53;45.29
85166;BME280;75533;52.100;10.228;2024-02-26T01:18:32;98709.53;;;18.51;45.22
85166;BME280;75533;52.100;10.228;2024-02-26T01:20:57;98702.59;;;18.49;45.11
85166;BME280;75533;52.100;10.228;2024-02-26T01:23:22;98707.03;;;18.50;45.21
85166;BME280;75533;52.100;10.228;2024-02-26T01:25:48;98707.28;;;18.48;45.25
85166;BME280;75533;52.100;10.228;2024-02-26T01:28:14;98705.59;;;18.47;45.39
85166;BME280;75533;52.100;10.228;2024-02-26T01:30:39;98702.00;;;18.47;45.19
85166;BME280;75533;52.100;10.228;2024-02-26T01:33:05;98704.50;;;18.48;45.37
85166;BME280;75533;52.100;10.228;2024-02-26T01:35:30;98705.59;;;18.47;45.27
85166;BME280;75533;52.100;10.228;2024-02-26T01:37:55;98697.81;;;18.44;45.25
85166;BME280;75533;52.100;10.228;2024-02-26T01:40:21;98700.06;;;18.47;45.12
85166;BME280;75533;52.100;10.228;2024-02-26T01:42:47;98683.38;;;18.42;45.33
85166;BME280;75533;52.100;10.228;2024-02-26T01:45:17;98692.50;;;18.43;45.29
85166;BME280;75533;52.100;10.228;2024-02-26T01:47:50;98688.91;;;18.42;45.28
85166;BME280;75533;52.100;10.228;2024-02-26T01:50:17;98693.84;;;18.40;45.16
85166;BME280;75533;52.100;10.228;2024-02-26T01:52:44;98692.75;;;18.41;45.12
85166;BME280;75533;52.100;10.228;2024-02-26T01:55:12;98686.75;;;18.44;45.06
85166;BME280;75533;52.100;10.228;2024-02-26T01:57:40;98685.53;;;18.40;45.30
85166;BME280;75533;52.100;10.228;2024-02-26T02:00:06;98687.22;;;18.41;45.10
85166;BME280;75533;52.100;10.228;2024-02-26T02:02:33;98683.03;;;18.39;45.35
85166;BME280;75533;52.100;10.228;2024-02-26T02:04:59;98685.78;;;18.39;45.30
85166;BME280;75533;52.100;10.228;2024-02-26T02:07:25;98688.31;;;18.40;45.11
85166;BME280;75533;52.100;10.228;2024-02-26T02:09:51;98688.81;;;18.37;45.13
85166;BME280;75533;52.100;10.228;2024-02-26T02:12:17;98695.66;;;18.35;45.39
85166;BME280;75533;52.100;10.228;2024-02-26T02:14:42;98701.19;;;18.35;45.21
85166;BME280;75533;52.100;10.228;2024-02-26T02:17:08;98699.25;;;18.35;45.32
85166;BME280;75533;52.100;10.228;2024-02-26T02:19:33;98686.53;;;18.34;45.08
85166;BME280;75533;52.100;10.228;2024-02-26T02:21:59;98692.06;;;18.34;45.30
85166;BME280;75533;52.100;10.228;2024-02-26T02:24:24;98687.88;;;18.31;45.19
85166;BME280;75533;52.100;10.228;2024-02-26T02:26:49;98690.63;;;18.31;45.44
85166;BME280;75533;52.100;10.228;2024-02-26T02:29:15;98691.47;;;18.32;45.24
85166;BME280;75533;52.100;10.228;2024-02-26T02:31:41;98691.97;;;18.29;45.22
85166;BME280;75533;52.100;10.228;2024-02-26T02:34:07;98687.88;;;18.31;45.11
85166;BME280;75533;52.100;10.228;2024-02-26T02:36:33;98691.97;;;18.29;45.12
85166;BME280;75533;52.100;10.228;2024-02-26T02:38:58;98689.19;;;18.29;45.24
85166;BME280;75533;52.100;10.228;2024-02-26T02:41:23;98689.19;;;18.29;45.14
85166;BME280;75533;52.100;10.228;2024-02-26T02:43:49;98692.81;;;18.29;45.19
85166;BME280;75533;52.100;10.228;2024-02-26T02:46:14;98690.53;;;18.26;45.21
85166;BME280;75533;52.100;10.228;2024-02-26T02:48:41;98700.16;;;18.24;45.32
85166;BME280;75533;52.100;10.228;2024-02-26T02:51:07;98700.75;;;18.26;45.35
85166;BME280;75533;52.100;10.228;2024-02-26T02:53:32;98694.13;;;18.27;45.17
85166;BME280;75533;52.100;10.228;2024-02-26T02:55:57;98700.75;;;18.26;45.23
85166;BME280;75533;52.100;10.228;2024-02-26T02:58:22;98695.22;;;18.26;45.33
85166;BME280;75533;52.100;10.228;2024-02-26T03:00:48;98700.75;;;18.26;45.07
85166;BME280;75533;52.100;10.228;2024-02-26T03:03:13;98700.75;;;18.26;45.11
85166;BME280;75533;52.100;10.228;2024-02-26T03:05:38;98711.44;;;18.22;45.18
85166;BME280;75533;52.100;10.228;2024-02-26T03:08:04;98704.22;;;18.21;45.26
85166;BME280;75533;52.100;10.228;2024-02-26T03:10:29;98696.41;;;18.18;45.21
85166;BME280;75533;52.100;10.228;2024-02-26T03:12:55;98697.25;;;18.19;45.26
85166;BME280;75533;52.100;10.228;2024-02-26T03:15:21;98702.53;;;18.20;45.06
85166;BME280;75533;52.100;10.228;2024-02-26T03:17:46;98700.28;;;18.17;45.05
85166;BME280;75533;52.100;10.228;2024-02-26T03:20:12;98705.78;;;18.17;45.31
85166;BME280;75533;52.100;10.228;2024-02-26T03:22:38;98706.63;;;18.18;45.12
85166;BME280;75533;52.100;10.228;2024-02-26T03:25:04;98713.25;;;18.17;45.20
85166;BME280;75533;52.100;10.228;2024-02-26T03:27:30;98711.56;;;18.16;45.19
85166;BME280;75533;52.100;10.228;2024-02-26T03:29:55;98709.88;;;18.15;45.17
85166;BME280;75533;52.100;10.228;2024-02-26T03:32:20;98709.63;;;18.16;45.04
85166;BME280;75533;52.100;10.228;2024-02-26T03:34:46;98713.50;;;18.15;45.21
85166;BME280;75533;52.100;10.228;2024-02-26T03:37:11;98712.66;;;18.15;45.30
85166;BME280;75533;52.100;10.228;2024-02-26T03:39:37;98713.97;;;18.12;45.00
85166;BME280;75533;52.100;10.228;2024-02-26T03:42:03;98714.22;;;18.11;45.25
85166;BME280;75533;52.100;10.228;2024-02-26T03:44:28;98709.53;;;18.11;45.15
85166;BME280;75533;52.100;10.228;2024-02-26T03:46:54;98708.69;;;18.11;45.11
85166;BME280;75533;52.100;10.228;2024-02-26T03:49:19;98707.03;;;18.10;45.47
85166;BME280;75533;52.100;10.228;2024-02-26T03:51:44;98707.03;;;18.10;44.94
85166;BME280;75533;52.100;10.228;2024-02-26T03:54:10;98702.59;;;18.09;45.25
85166;BME280;75533;52.100;10.228;2024-02-26T03:56:35;98699.81;;;18.09;45.49
85166;BME280;75533;52.100;10.228;2024-02-26T03:59:00;98703.06;;;18.06;45.28
85166;BME280;75533;52.100;10.228;2024-02-26T04:01:27;98703.31;;;18.04;45.26
85166;BME280;75533;52.100;10.228;2024-02-26T04:03:53;98706.44;;;18.08;45.33
85166;BME280;75533;52.100;10.228;2024-02-26T04:06:18;98709.69;;;18.05;45.22
85166;BME280;75533;52.100;10.228;2024-02-26T04:08:46;98708.84;;;18.04;45.22
85166;BME280;75533;52.100;10.228;2024-02-26T04:11:11;98706.69;;;18.06;45.13
85166;BME280;75533;52.100;10.228;2024-02-26T04:13:37;98709.94;;;18.03;45.25
85166;BME280;75533;52.100;10.228;2024-02-26T04:16:05;98703.56;;;18.02;45.40
85166;BME280;75533;52.100;10.228;2024-02-26T04:18:31;98706.31;;;18.02;45.34
85166;BME280;75533;52.100;10.228;2024-02-26T04:20:57;98709.34;;;18.01;45.46
85166;BME280;75533;52.100;10.228;2024-02-26T04:23:22;98717.84;;;17.99;45.38
85166;BME280;75533;52.100;10.228;2024-02-26T04:25:48;98717.84;;;17.99;45.39
85166;BME280;75533;52.100;10.228;2024-02-26T04:28:13;98725.28;;;17.99;45.38
85166;BME280;75533;52.100;10.228;2024-02-26T04:30:39;98728.03;;;17.99;45.22
85166;BME280;75533;52.100;10.228;2024-02-26T04:33:04;98733.56;;;17.99;45.25
85166;BME280;75533;52.100;10.228;2024-02-26T04:35:30;98733.81;;;17.97;45.12
85166;BME280;75533;52.100;10.228;2024-02-26T04:37:56;98725.78;;;17.96;45.22
85166;BME280;75533;52.100;10.228;2024-02-26T04:40:21;98733.47;;;17.94;45.35
85166;BME280;75533;52.100;10.228;2024-02-26T04:42:47;98739.81;;;17.94;45.04
85166;BME280;75533;52.100;10.228;2024-02-26T04:45:12;98735.63;;;17.92;45.30
85166;BME280;75533;52.100;10.228;2024-02-26T04:47:38;98750.28;;;17.92;45.30
85166;BME280;75533;52.100;10.228;2024-02-26T04:50:03;98745.81;;;17.91;45.39
85166;BME280;75533;52.100;10.228;2024-02-26T04:52:29;98744.75;;;17.92;45.11
85166;BME280;75533;52.100;10.228;2024-02-26T04:54:54;98743.66;;;17.93;45.22
85166;BME280;75533;52.100;10.228;2024-02-26T04:57:21;98741.16;;;17.92;45.37
85166;BME280;75533;52.100;10.228;2024-02-26T04:59:46;98738.63;;;17.90;45.33
85166;BME280;75533;52.100;10.228;2024-02-26T05:02:12;98729.16;;;17.86;45.34
85166;BME280;75533;52.100;10.228;2024-02-26T05:04:38;98740.53;;;17.90;45.51
85166;BME280;75533;52.100;10.228;2024-02-26T05:07:03;98742.72;;;17.88;45.68
85166;BME280;75533;52.100;10.228;2024-02-26T05:09:29;98736.59;;;17.86;45.65
85166;BME280;75533;52.100;10.228;2024-02-26T05:11:54;98744.03;;;17.85;45.65
85166;BME280;75533;52.100;10.228;2024-02-26T05:14:19;98750.66;;;17.84;45.72
85166;BME280;75533;52.100;10.228;2024-02-26T05:16:45;98751.72;;;17.83;45.73
85166;BME280;75533;52.100;10.228;2024-02-26T05:19:11;98748.97;;;17.83;45.80
85166;BME280;75533;52.100;10.228;2024-02-26T05:21:36;98757.25;;;17.83;45.48
85166;BME280;75533;52.100;10.228;2024-02-26T05:24:01;98752.31;;;17.85;45.77
85166;BME280;75533;52.100;10.228;2024-02-26T05:26:27;98755.09;;;17.85;46.00
85166;BME280;75533;52.100;10.228;2024-02-26T05:28:52;98751.47;;;17.85;45.55
85166;BME280;75533;52.100;10.228;2024-02-26T05:31:17;98758.94;;;17.84;45.79
85166;BME280;75533;52.100;10.228;2024-02-26T05:33:43;98763.59;;;17.84;45.64
85166;BME280;75533;52.100;10.228;2024-02-26T05:36:09;98757.25;;;17.83;45.67
85166;BME280;75533;52.100;10.228;2024-02-26T05:38:34;98750.66;;;17.84;45.85
85166;BME280;75533;52.100;10.228;2024-02-26T05:41:00;98760.00;;;17.83;45.89
85166;BME280;75533;52.100;10.228;2024-02-26T05:43:28;98759.41;;;17.81;46.08
85166;BME280;75533;52.100;10.228;2024-02-26T05:45:54;98754.47;;;17.83;45.75
85166;BME280;75533;52.100;10.228;2024-02-26T05:48:19;98757.34;;;17.88;46.11
85166;BME280;75533;52.100;10.228;2024-02-26T05:50:46;98766.97;;;17.86;46.01
85166;BME280;75533;52.100;10.228;2024-02-26T05:53:11;98761.44;;;17.86;46.03
85166;BME280;75533;52.100;10.228;2024-02-26T05:55:37;98769.47;;;17.87;45.85
85166;BME280;75533;52.100;10.228;2024-02-26T05:58:02;98772.25;;;17.87;46.04
85166;BME280;75533;52.100;10.228;2024-02-26T06:00:28;98772.25;;;17.87;45.98
85166;BME280;75533;52.100;10.228;2024-02-26T06:02:53;98786.03;;;17.87;46.14
85166;BME280;75533;52.100;10.228;2024-02-26T06:05:19;98783.28;;;17.87;46.08
85166;BME280;75533;52.100;10.228;2024-02-26T06:07:44;98783.88;;;17.89;46.04
85166;BME280;75533;52.100;10.228;2024-02-26T06:10:10;98785.56;;;17.90;46.23
85166;BME280;75533;52.100;10.228;2024-02-26T06:12:35;98793.00;;;17.90;45.97
85166;BME280;75533;52.100;10.228;2024-02-26T06:15:01;98796.59;;;17.90;46.13
85166;BME280;75533;52.100;10.228;2024-02-26T06:17:26;98804.28;;;17.88;46.17
85166;BME280;75533;52.100;10.228;2024-02-26T06:19:51;98814.25;;;17.89;46.30
85166;BME280;75533;52.100;10.228;2024-02-26T06:22:17;98812.56;;;17.88;46.42
85166;BME280;75533;52.100;10.228;2024-02-26T06:24:42;98809.34;;;17.91;46.29
85166;BME280;75533;52.100;10.228;2024-02-26T06:27:07;98818.56;;;17.97;45.82
85166;BME280;75533;52.100;10.228;2024-02-26T06:29:33;98829.13;;;18.00;45.99
85166;BME280;75533;52.100;10.228;2024-02-26T06:31:59;98829.75;;;18.02;46.20
85166;BME280;75533;52.100;10.228;2024-02-26T06:34:24;98832.88;;;18.06;45.97
85166;BME280;75533;52.100;10.228;2024-02-26T06:36:49;98836.25;;;18.08;46.10
85166;BME280;75533;52.100;10.228;2024-02-26T06:39:15;98837.91;;;18.09;45.87
85166;BME280;75533;52.100;10.228;2024-02-26T06:41:41;98842.13;;;18.11;45.82
85166;BME280;75533;52.100;10.228;2024-02-26T06:44:06;98837.44;;;18.12;45.84
85166;BME280;75533;52.100;10.228;2024-02-26T06:46:32;98838.03;;;18.14;45.92
85166;BME280;75533;52.100;10.228;2024-02-26T06:48:57;98846.91;;;18.16;45.57
85166;BME280;75533;52.100;10.228;2024-02-26T06:51:22;98859.03;;;18.15;45.70
85166;BME280;75533;52.100;10.228;2024-02-26T06:53:49;98856.88;;;18.17;45.53
85166;BME280;75533;52.100;10.228;2024-02-26T06:56:14;98864.09;;;18.18;45.77
85166;BME280;75533;52.100;10.228;2024-02-26T06:58:39;98869.97;;;18.21;45.63
85166;BME280;75533;52.100;10.228;2024-02-26T07:01:05;98862.41;;;18.17;45.75
85166;BME280;75533;52.100;10.228;2024-02-26T07:03:30;98869.13;;;18.21;45.36
85166;BME280;75533;52.100;10.228;2024-02-26T07:05:55;98872.50;;;18.23;45.15
85166;BME280;75533;52.100;10.228;2024-02-26T07:08:21;98885.50;;;18.22;45.21
85166;BME280;75533;52.100;10.228;2024-02-26T07:10:46;98881.88;;;18.22;45.35
85166;BME280;75533;52.100;10.228;2024-02-26T07:13:12;98878.03;;;18.23;45.38
85166;BME280;75533;52.100;10.228;2024-02-26T07:15:37;98883.56;;;18.23;45.12
85166;BME280;75533;52.100;10.228;2024-02-26T07:18:02;98880.81;;;18.23;45.27
85166;BME280;75533;52.100;10.228;2024-02-26T07:20:31;98886.34;;;18.23;45.31
85166;BME280;75533;52.100;10.228;2024-02-26T07:22:57;98884.75;;;18.27;45.02
85166;BME280;75533;52.100;10.228;2024-02-26T07:25:22;98883.44;;;18.29;45.43
85166;BME280;75533;52.100;10.228;2024-02-26T07:27:49;98885.13;;;18.30;44.93
85166;BME280;75533;52.100;10.228;2024-02-26T07:30:15;98880.19;;;18.32;44.96
85166;BME280;75533;52.100;10.228;2024-02-26T07:32:41;98889.31;;;18.33;45.25
85166;BME280;75533;52.100;10.228;2024-02-26T07:35:07;98885.47;;;18.34;45.38
85166;BME280;75533;52.100;10.228;2024-02-26T07:37:32;98892.69;;;18.35;44.92
85166;BME280;75533;52.100;10.228;2024-02-26T07:39:57;98894.59;;;18.35;45.08
85166;BME280;75533;52.100;10.228;2024-02-26T07:42:23;98887.16;;;18.35;45.21
85166;BME280;75533;52.100;10.228;2024-02-26T07:44:48;98890.50;;;18.37;44.91
85166;BME280;75533;52.100;10.228;2024-02-26T07:47:13;98886.66;;;18.38;44.86
85166;BME280;75533;52.100;10.228;2024-02-26T07:49:39;98886.19;;;18.41;44.99
85166;BME280;75533;52.100;10.228;2024-02-26T07:52:05;98887.50;;;18.39;44.97
85166;BME280;75533;52.100;10.228;2024-02-26T07:54:30;98881.13;;;18.38;44.79
85166;BME280;75533;52.100;10.228;2024-02-26T07:56:56;98878.97;;;18.40;44.77
85166;BME280;75533;52.100;10.228;2024-02-26T07:59:21;98886.66;;;18.38;45.11
85166;BME280;75533;52.100;10.228;2024-02-26T08:01:52;98878.97;;;18.40;44.84
85166;BME280;75533;52.100;10.228;2024-02-26T08:04:18;98878.47;;;18.43;44.70
85166;BME280;75533;52.100;10.228;2024-02-26T08:06:43;98874.03;;;18.42;44.69
85166;BME280;75533;52.100;10.228;2024-02-26T08:09:08;98880.19;;;18.44;44.68
85166;BME280;75533;52.100;10.228;2024-02-26T08:11:34;98880.19;;;18.44;44.77
85166;BME280;75533;52.100;10.228;2024-02-26T08:13:59;98879.34;;;18.44;44.77
85166;BME280;75533;52.100;10.228;2024-02-26T08:16:24;98891.84;;;18.46;44.80
85166;BME280;75533;52.100;10.228;2024-02-26T08:18:50;98878.63;;;18.48;44.64
85166;BME280;75533;52.100;10.228;2024-02-26T08:21:15;98884.75;;;18.50;45.02
85166;BME280;75533;52.100;10.228;2024-02-26T08:23:43;98884.75;;;18.50;44.47
85166;BME280;75533;52.100;10.228;2024-02-26T08:26:08;98878.38;;;18.50;45.03
85166;BME280;75533;52.100;10.228;2024-02-26T08:28:37;98884.00;;;18.55;44.91
85166;BME280;75533;52.100;10.228;2024-02-26T08:31:02;98882.44;;;18.59;44.69
85166;BME280;75533;52.100;10.228;2024-02-26T08:33:28;98877.66;;;18.54;44.77
85166;BME280;75533;52.100;10.228;2024-02-26T08:35:53;98878.25;;;18.56;44.63
85166;BME280;75533;52.100;10.228;2024-02-26T08:38:19;98883.78;;;18.56;45.04
85166;BME280;75533;52.100;10.228;2024-02-26T08:40:44;98864.78;;;18.60;44.93
85166;BME280;75533;52.100;10.228;2024-02-26T08:43:10;98861.78;;;18.50;44.72
85166;BME280;75533;52.100;10.228;2024-02-26T08:45:35;98875.00;;;18.59;44.73
85166;BME280;75533;52.100;10.228;2024-02-26T08:48:00;98874.41;;;18.57;44.90
85166;BME280;75533;52.100;10.228;2024-02-26T08:50:25;98877.75;;;18.59;45.07
85166;BME280;75533;52.100;10.228;2024-02-26T08:52:51;98884.13;;;18.60;45.13
85166;BME280;75533;52.100;10.228;2024-02-26T08:55:18;98883.28;;;18.59;45.02
85166;BME280;75533;52.100;10.228;2024-02-26T08:57:44;98867.91;;;18.63;44.97
85166;BME280;75533;52.100;10.228;2024-02-26T09:00:10;98873.44;;;18.63;45.16
85166;BME280;75533;52.100;10.228;2024-02-26T09:02:36;98864.53;;;18.61;44.98
85166;BME280;75533;52.100;10.228;2024-02-26T09:05:04;98867.91;;;18.63;45.16
85166;BME280;75533;52.100;10.228;2024-02-26T09:07:29;98864.31;;;18.63;45.32
85166;BME280;75533;52.100;10.228;2024-02-26T09:09:55;98869.59;;;18.65;45.40
85166;BME280;75533;52.100;10.228;2024-02-26T09:12:21;98872.59;;;18.63;45.26
85166;BME280;75533;52.100;10.228;2024-02-26T09:14:46;98885.13;;;18.66;45.31
85166;BME280;75533;52.100;10.228;2024-02-26T09:17:12;98889.09;;;18.70;45.04
85166;BME280;75533;52.100;10.228;2024-02-26T09:19:37;98891.25;;;18.68;44.99
85166;BME280;75533;52.100;10.228;2024-02-26T09:22:03;98895.09;;;18.67;44.97
85166;BME280;75533;52.100;10.228;2024-02-26T09:24:28;98893.44;;;18.66;45.09
85166;BME280;75533;52.100;10.228;2024-02-26T09:26:55;98888.34;;;18.62;44.94
85166;BME280;75533;52.100;10.228;2024-02-26T09:29:20;98897.47;;;18.63;45.11
85166;BME280;75533;52.100;10.228;2024-02-26T09:31:45;98903.59;;;18.65;45.02
85166;BME280;75533;52.100;10.228;2024-02-26T09:34:13;98901.94;;;18.64;45.12
85166;BME280;75533;52.100;10.228;2024-02-26T09:36:38;98908.09;;;18.66;45.26
85166;BME280;75533;52.100;10.228;2024-02-26T09:39:03;98911.69;;;18.67;45.19
85166;BME280;75533;52.100;10.228;2024-02-26T09:41:29;98913.81;;;18.65;45.36
85166;BME280;75533;52.100;10.228;2024-02-26T09:43:57;98924.88;;;18.65;45.34
85166;BME280;75533;52.100;10.228;2024-02-26T09:46:25;98921.06;;;18.66;45.27
85166;BME280;75533;52.100;10.228;2024-02-26T09:48:50;98922.75;;;18.67;45.30
85166;BME280;75533;52.100;10.228;2024-02-26T09:51:16;98935.72;;;18.66;45.23
85166;BME280;75533;52.100;10.228;2024-02-26T09:53:43;98933.81;;;18.67;45.29
85166;BME280;75533;52.100;10.228;2024-02-26T09:56:11;98937.66;;;18.66;45.26
85166;BME280;75533;52.100;10.228;2024-02-26T09:58:38;98944.88;;;18.67;45.27
85166;BME280;75533;52.100;10.228;2024-02-26T10:01:10;98945.06;;;18.65;45.30
85166;BME280;75533;52.100;10.228;2024-02-26T10:03:38;98947.00;;;18.65;45.29
85166;BME280;75533;52.100;10.228;2024-02-26T10:06:06;98950.84;;;18.63;45.51
85166;BME280;75533;52.100;10.228;2024-02-26T10:08:32;98939.78;;;18.63;45.32
85166;BME280;75533;52.100;10.228;2024-02-26T10:10:58;98946.63;;;18.61;45.38
85166;BME280;75533;52.100;10.228;2024-02-26T10:13:24;98940.88;;;18.62;45.69
85166;BME280;75533;52.100;10.228;2024-02-26T10:15:50;98942.94;;;18.67;45.59
85166;BME280;75533;52.100;10.228;2024-02-26T10:18:16;98952.53;;;18.65;45.65
85166;BME280;75533;52.100;10.228;2024-02-26T10:20:41;98955.91;;;18.67;45.40
85166;BME280;75533;52.100;10.228;2024-02-26T10:23:06;98960.81;;;18.65;45.41
85166;BME280;75533;52.100;10.228;2024-02-26T10:25:32;98952.53;;;18.65;45.59
85166;BME280;75533;52.100;10.228;2024-02-26T10:28:01;98954.25;;;18.66;45.36
85166;BME280;75533;52.100;10.228;2024-02-26T10:30:29;98944.22;;;18.65;45.43
85166;BME280;75533;52.100;10.228;2024-02-26T10:32:56;98948.72;;;18.66;45.52
85166;BME280;75533;52.100;10.228;2024-02-26T10:35:21;98953.16;;;18.67;45.59
85166;BME280;75533;52.100;10.228;2024-02-26T10:37:47;98950.41;;;18.67;45.42
85166;BME280;75533;52.100;10.228;2024-02-26T10:40:14;98963.59;;;18.65;45.24
85166;BME280;75533;52.100;10.228;2024-02-26T10:42:40;98972.50;;;18.67;45.26
85166;BME280;75533;52.100;10.228;2024-02-26T10:45:07;98971.66;;;18.66;45.23
85166;BME280;75533;52.100;10.228;2024-02-26T10:47:35;98967.19;;;18.65;45.39
85166;BME280;75533;52.100;10.228;2024-02-26T10:50:05;98965.31;;;18.66;45.14
85166;BME280;75533;52.100;10.228;2024-02-26T10:52:35;98969.13;;;18.65;45.28
85166;BME280;75533;52.100;10.228;2024-02-26T10:55:02;98955.75;;;18.61;45.43
85166;BME280;75533;52.100;10.228;2024-02-26T10:57:35;98969.13;;;18.65;45.44
85166;BME280;75533;52.100;10.228;2024-02-26T11:00:02;98965.31;;;18.66;45.41
85166;BME280;75533;52.100;10.228;2024-02-26T11:02:32;98974.44;;;18.66;45.34
85166;BME280;75533;52.100;10.228;2024-02-26T11:05:00;98960.81;;;18.65;45.59
85166;BME280;75533;52.100;10.228;2024-02-26T11:07:26;98950.41;;;18.67;45.38
85166;BME280;75533;52.100;10.228;2024-02-26T11:09:52;98957.59;;;18.68;45.45
85166;BME280;75533;52.100;10.228;2024-02-26T11:12:19;98962.28;;;18.67;45.51
85166;BME280;75533;52.100;10.228;2024-02-26T11:14:46;98976.13;;;18.67;45.81
85166;BME280;75533;52.100;10.228;2024-02-26T11:17:13;98975.88;;;18.69;45.64
85166;BME280;75533;52.100;10.228;2024-02-26T11:19:39;98981.41;;;18.69;45.69
85166;BME280;75533;52.100;10.228;2024-02-26T11:22:06;98975.28;;;18.67;45.58
85166;BME280;75533;52.100;10.228;2024-02-26T11:24:32;98969.13;;;18.65;45.93
85166;BME280;75533;52.100;10.228;2024-02-26T11:27:01;98978.88;;;18.67;45.74
85166;BME280;75533;52.100;10.228;2024-02-26T11:29:32;98985.25;;;18.68;45.64
85166;BME280;75533;52.100;10.228;2024-02-26T11:31:59;98980.56;;;18.68;45.54
85166;BME280;75533;52.100;10.228;2024-02-26T11:34:25;98986.69;;;18.70;45.58
85166;BME280;75533;52.100;10.228;2024-02-26T11:36:52;98985.25;;;18.68;45.75
85166;BME280;75533;52.100;10.228;2024-02-26T11:39:17;98989.09;;;18.67;45.98
85166;BME280;75533;52.100;10.228;2024-02-26T11:41:43;98986.09;;;18.68;45.96
85166;BME280;75533;52.100;10.228;2024-02-26T11:44:08;98990.78;;;18.68;46.15
85166;BME280;75533;52.100;10.228;2024-02-26T11:46:41;98982.72;;;18.66;46.05
85166;BME280;75533;52.100;10.228;2024-02-26T11:49:37;98985.25;;;18.68;46.05
85166;BME280;75533;52.100;10.228;2024-02-26T11:52:05;98989.09;;;18.67;45.92
85166;BME280;75533;52.100;10.228;2024-02-26T11:54:45;98987.41;;;18.66;46.12
85166;BME280;75533;52.100;10.228;2024-02-26T11:57:29;98992.69;;;18.67;46.08
85166;BME280;75533;52.100;10.228;2024-02-26T11:59:57;98985.50;;;18.66;45.99
85166;BME280;75533;52.100;10.228;2024-02-26T12:02:46;98993.78;;;18.66;46.03
85166;BME280;75533;52.100;10.228;2024-02-26T12:05:17;98998.22;;;18.67;45.72
85166;BME280;75533;52.100;10.228;2024-02-26T12:07:47;98994.00;;;18.65;45.99
85166;BME280;75533;52.100;10.228;2024-02-26T12:10:22;98995.22;;;18.69;45.86
85166;BME280;75533;52.100;10.228;2024-02-26T12:12:53;99006.53;;;18.67;45.73
85166;BME280;75533;52.100;10.228;2024-02-26T12:15:18;99005.44;;;18.68;45.96
85166;BME280;75533;52.100;10.228;2024-02-26T12:17:48;99002.69;;;18.68;45.71
85166;BME280;75533;52.100;10.228;2024-02-26T12:20:16;98999.31;;;18.66;46.03
85166;BME280;75533;52.100;10.228;2024-02-26T12:22:45;99001.00;;;18.67;45.88
85166;BME280;75533;52.100;10.228;2024-02-26T12:25:11;99006.78;;;18.66;46.04
85166;BME280;75533;52.100;10.228;2024-02-26T12:27:36;99002.28;;;18.65;46.21
85166;BME280;75533;52.100;10.228;2024-02-26T12:30:03;99013.34;;;18.65;45.78
85166;BME280;75533;52.100;10.228;2024-02-26T12:32:28;99015.06;;;18.66;45.77
85166;BME280;75533;52.100;10.228;2024-02-26T12:34:54;99016.75;;;18.67;46.09
85166;BME280;75533;52.100;10.228;2024-02-26T12:37:19;99021.44;;;18.66;45.88
85166;BME280;75533;52.100;10.228;2024-02-26T12:39:45;99017.19;;;18.63;46.15
85166;BME280;75533;52.100;10.228;2024-02-26T12:42:11;99014.81;;;18.67;46.23
85166;BME280;75533;52.100;10.228;2024-02-26T12:44:37;99012.91;;;18.68;46.07